createdAt,value
2019-01-11T00:00:47.843Z,-2.00
2019-01-11T00:05:32.677Z,-2.10
2019-01-11T00:10:17.401Z,-2.00
2019-01-11T00:15:02.140Z,-2.10
2019-01-11T00:19:46.839Z,-2.10
2019-01-11T00:24:31.639Z,-2.10
2019-01-11T00:29:16.432Z,-2.10
2019-01-11T00:34:01.211Z,-2.10
2019-01-11T00:38:47.285Z,-2.20
2019-01-11T00:43:32.009Z,-2.30
2019-01-11T00:48:17.070Z,-2.20
2019-01-11T00:53:01.803Z,-2.20
2019-01-11T00:57:46.505Z,-2.20
2019-01-11T01:02:31.280Z,-2.30
2019-01-11T01:07:16.161Z,-2.40
2019-01-11T01:12:01.048Z,-2.40
2019-01-11T01:16:46.177Z,-2.50
2019-01-11T01:21:30.963Z,-2.40
2019-01-11T01:26:15.893Z,-2.40
2019-01-11T01:31:00.781Z,-2.50
2019-01-11T01:35:45.680Z,-2.50
2019-01-11T01:40:30.642Z,-2.30
2019-01-11T01:45:16.254Z,-2.50
2019-01-11T01:50:00.963Z,-2.30
2019-01-11T01:54:45.757Z,-2.30
2019-01-11T01:59:30.606Z,-2.40
2019-01-11T02:04:15.425Z,-2.30
2019-01-11T02:09:00.155Z,-2.40
2019-01-11T02:13:45.161Z,-2.40
2019-01-11T02:18:29.875Z,-2.40
2019-01-11T02:23:14.860Z,-2.30
2019-01-11T02:27:59.575Z,-2.30
2019-01-11T02:32:44.283Z,-2.30
2019-01-11T02:37:28.982Z,-2.40
2019-01-11T02:42:13.753Z,-2.50
2019-01-11T02:46:58.656Z,-2.60
2019-01-11T02:51:43.382Z,-2.60
2019-01-11T02:56:28.066Z,-2.60
2019-01-11T03:01:12.718Z,-2.70
2019-01-11T03:05:57.661Z,-2.80
2019-01-11T03:10:42.495Z,-2.80
2019-01-11T03:15:27.100Z,-2.70
2019-01-11T03:20:12.087Z,-2.70
2019-01-11T03:24:56.914Z,-2.60
2019-01-11T03:29:41.681Z,-2.60
2019-01-11T03:34:26.464Z,-2.50
2019-01-11T03:39:11.215Z,-2.60
2019-01-11T03:43:56.063Z,-2.50
2019-01-11T03:48:40.677Z,-2.50
2019-01-11T03:53:25.507Z,-2.60
2019-01-11T03:58:11.412Z,-2.60
2019-01-11T04:02:56.137Z,-2.60
2019-01-11T04:07:40.751Z,-2.40
2019-01-11T04:12:25.463Z,-2.50
2019-01-11T04:17:10.320Z,-2.40
2019-01-11T04:22:19.991Z,-2.50
2019-01-11T04:27:04.787Z,-2.50
2019-01-11T04:31:49.366Z,-2.50
2019-01-11T04:36:34.089Z,-2.50
2019-01-11T04:41:18.907Z,-2.50
2019-01-11T04:46:03.570Z,-2.50
2019-01-11T04:50:48.271Z,-2.50
2019-01-11T04:55:33.305Z,-2.60
2019-01-11T05:00:23.165Z,-2.50
2019-01-11T05:05:08.213Z,-2.50
2019-01-11T05:09:53.066Z,-2.50
2019-01-11T05:14:37.807Z,-2.50
2019-01-11T05:19:22.562Z,-2.50
2019-01-11T05:24:07.258Z,-2.40
2019-01-11T05:28:51.892Z,-2.40
2019-01-11T05:33:36.654Z,-2.50
2019-01-11T05:38:21.394Z,-2.50
2019-01-11T05:43:06.183Z,-2.40
2019-01-11T05:47:50.857Z,-2.40
2019-01-11T05:52:35.667Z,-2.40
2019-01-11T05:57:20.266Z,-2.50
2019-01-11T06:02:05.250Z,-2.50
2019-01-11T06:07:14.897Z,-2.40
2019-01-11T06:11:59.900Z,-2.40
2019-01-11T06:16:44.412Z,-2.40
2019-01-11T06:21:29.158Z,-2.40
2019-01-11T06:26:13.771Z,-2.40
2019-01-11T06:30:58.602Z,-2.30
2019-01-11T06:35:43.694Z,-2.30
2019-01-11T06:40:32.245Z,-2.30
2019-01-11T06:45:16.875Z,-2.20
2019-01-11T06:50:01.525Z,-2.30
2019-01-11T06:54:48.269Z,-2.30
2019-01-11T06:59:32.705Z,-2.20
2019-01-11T07:04:17.592Z,-2.30
2019-01-11T07:09:02.396Z,-2.30
2019-01-11T07:13:47.053Z,-2.20
2019-01-11T07:18:31.733Z,-2.20
2019-01-11T07:23:16.480Z,-2.10
2019-01-11T07:28:03.876Z,-2.10
2019-01-11T07:32:48.516Z,-2.10
2019-01-11T07:37:33.147Z,-2.00
2019-01-11T07:42:17.807Z,-2.00
2019-01-11T07:47:02.348Z,-1.90
2019-01-11T07:51:49.122Z,-1.80
2019-01-11T07:56:33.738Z,-1.80
2019-01-11T08:01:18.335Z,-1.50
2019-01-11T08:06:02.954Z,-1.40
2019-01-11T08:10:47.607Z,-1.40
2019-01-11T08:15:32.163Z,-1.50
2019-01-11T08:20:16.699Z,-1.30
2019-01-11T08:25:04.081Z,-1.20
2019-01-11T08:29:48.675Z,-1.10
2019-01-11T08:34:33.256Z,-1.10
2019-01-11T08:39:17.906Z,-1.10
2019-01-11T08:44:02.539Z,-1.10
2019-01-11T08:48:47.058Z,-1.00
2019-01-11T08:53:31.709Z,-0.90
2019-01-11T08:58:16.385Z,-0.90
2019-01-11T09:03:01.048Z,-0.90
2019-01-11T09:07:45.746Z,-0.80
2019-01-11T09:12:30.271Z,-0.90
2019-01-11T09:17:14.982Z,-0.90
2019-01-11T09:21:59.901Z,-0.80
2019-01-11T09:26:44.472Z,-0.70
2019-01-11T09:31:29.251Z,-0.70
2019-01-11T09:36:13.779Z,-0.70
2019-01-11T09:40:58.366Z,-0.70
2019-01-11T09:45:43.143Z,-0.80
2019-01-11T09:50:27.694Z,-0.40
2019-01-11T09:55:13.390Z,-0.60
2019-01-11T09:59:58.082Z,-0.50
2019-01-11T10:04:42.759Z,-0.50
2019-01-11T10:09:27.333Z,-0.50
2019-01-11T10:14:11.942Z,-0.50
2019-01-11T10:18:56.524Z,-0.50
2019-01-11T10:23:41.207Z,-0.40
2019-01-11T10:28:25.817Z,-0.30
2019-01-11T10:33:10.507Z,-0.30
2019-01-11T10:37:55.242Z,-0.20
2019-01-11T10:42:39.799Z,-0.10
2019-01-11T10:47:24.296Z,-0.20
2019-01-11T10:52:10.073Z,-0.20
2019-01-11T10:56:54.956Z,-0.10
2019-01-11T11:01:39.522Z,0.00
2019-01-11T11:06:24.044Z,0.00
2019-01-11T11:11:08.609Z,-0.20
2019-01-11T11:15:54.798Z,-0.10
2019-01-11T11:20:39.428Z,0.00
2019-01-11T11:25:24.051Z,0.00
2019-01-11T11:30:10.511Z,0.20
2019-01-11T11:34:55.254Z,0.40
2019-01-11T11:39:39.706Z,0.20
2019-01-11T11:44:24.411Z,0.20
2019-01-11T11:49:09.031Z,0.40
2019-01-11T11:53:55.629Z,0.50
2019-01-11T11:58:40.289Z,0.40
2019-01-11T12:03:29.628Z,0.30
2019-01-11T12:08:14.270Z,0.30
2019-01-11T12:12:58.916Z,0.00
2019-01-11T12:17:43.536Z,0.20
2019-01-11T12:22:28.173Z,0.30
2019-01-11T12:27:12.786Z,0.30
2019-01-11T12:31:57.513Z,0.20
2019-01-11T12:36:42.422Z,0.00
2019-01-11T12:41:27.106Z,-0.10
2019-01-11T12:46:11.828Z,-0.10
2019-01-11T12:50:56.498Z,0.10
2019-01-11T12:55:41.251Z,0.20
2019-01-11T13:00:26.264Z,0.20
2019-01-11T13:05:12.742Z,0.20
2019-01-11T13:09:57.506Z,0.20
2019-01-11T13:14:42.475Z,0.20
2019-01-11T13:19:27.322Z,0.00
2019-01-11T13:24:11.898Z,0.00
2019-01-11T13:28:57.455Z,-0.10
2019-01-11T13:33:42.164Z,0.00
2019-01-11T13:38:26.864Z,0.00
2019-01-11T13:43:12.033Z,0.00
2019-01-11T13:47:58.096Z,0.10
2019-01-11T13:52:46.590Z,0.20
2019-01-11T13:57:35.937Z,0.20
2019-01-11T14:02:21.258Z,0.20
2019-01-11T14:07:06.249Z,0.20
2019-01-11T14:11:55.083Z,0.20
2019-01-11T14:16:40.773Z,0.20
2019-01-11T14:21:25.496Z,0.10
2019-01-11T14:26:10.306Z,0.20
2019-01-11T14:30:55.097Z,0.20
2019-01-11T14:35:39.816Z,0.10
2019-01-11T14:40:24.535Z,0.20
2019-01-11T14:45:11.016Z,0.10
2019-01-11T14:49:55.728Z,0.10
2019-01-11T14:54:40.277Z,0.10
2019-01-11T14:59:24.964Z,0.10
2019-01-11T15:04:09.576Z,0.00
2019-01-11T15:08:54.250Z,0.00
2019-01-11T15:13:38.846Z,0.00
2019-01-11T15:18:23.497Z,0.10
2019-01-11T15:23:13.510Z,0.10
2019-01-11T15:27:54.415Z,0.10
2019-01-11T15:32:39.070Z,0.20
2019-01-11T15:37:23.714Z,0.20
2019-01-11T15:42:08.267Z,0.20
2019-01-11T15:46:52.937Z,0.30
2019-01-11T15:51:37.560Z,0.30
2019-01-11T15:56:31.186Z,0.30
2019-01-11T16:01:15.829Z,0.30
2019-01-11T16:06:27.942Z,0.30
2019-01-11T16:11:29.055Z,0.30
2019-01-11T16:16:27.868Z,0.30
2019-01-11T16:21:12.509Z,0.30
2019-01-11T16:25:57.400Z,0.40
2019-01-11T16:30:42.298Z,0.40
2019-01-11T16:35:27.522Z,0.40
2019-01-11T16:40:12.403Z,0.50
2019-01-11T16:44:57.667Z,0.50
2019-01-11T16:49:43.482Z,0.50
2019-01-11T16:54:29.971Z,0.60
2019-01-11T16:59:37.691Z,0.60
2019-01-11T17:04:23.941Z,0.60
2019-01-11T17:09:16.934Z,0.70
2019-01-11T17:14:07.779Z,0.70
2019-01-11T17:19:05.318Z,0.70
2019-01-11T17:23:52.759Z,0.70
2019-01-11T17:28:52.914Z,0.70
2019-01-11T17:33:41.444Z,0.80
2019-01-11T17:38:55.364Z,0.80
2019-01-11T17:44:19.462Z,0.80
2019-01-11T17:49:27.893Z,0.80
2019-01-11T17:54:20.926Z,0.80
2019-01-11T17:59:14.837Z,0.80
2019-01-11T18:03:59.714Z,0.90
2019-01-11T18:08:44.610Z,1.00
2019-01-11T18:13:41.593Z,1.00
2019-01-11T18:18:29.090Z,1.00
2019-01-11T18:23:14.137Z,1.10
2019-01-11T18:28:08.594Z,1.10
2019-01-11T18:33:46.998Z,1.00
2019-01-11T18:38:32.227Z,1.10
2019-01-11T18:43:22.882Z,1.00
2019-01-11T18:48:08.253Z,1.10
2019-01-11T18:52:53.282Z,1.10
2019-01-11T18:57:38.311Z,1.10
2019-01-11T19:02:23.194Z,1.10
2019-01-11T19:07:09.650Z,1.20
2019-01-11T19:11:54.490Z,1.20
2019-01-11T19:16:39.233Z,1.20
2019-01-11T19:21:24.458Z,1.30
2019-01-11T19:26:11.404Z,1.30
2019-01-11T19:30:56.686Z,1.30
2019-01-11T19:35:41.658Z,1.30
2019-01-11T19:40:26.543Z,1.30
2019-01-11T19:45:12.250Z,1.30
2019-01-11T19:49:57.137Z,1.30
2019-01-11T19:54:42.199Z,1.30
2019-01-11T19:59:38.705Z,1.40
2019-01-11T20:04:23.610Z,1.40
2019-01-11T20:09:09.799Z,1.40
2019-01-11T20:13:54.690Z,1.40
2019-01-11T20:18:39.315Z,1.40
2019-01-11T20:23:34.666Z,1.50
2019-01-11T20:28:15.946Z,1.50
2019-01-11T20:33:01.051Z,1.50
2019-01-11T20:37:47.584Z,1.50
2019-01-11T20:42:32.296Z,1.50
2019-01-11T20:47:16.981Z,1.50
2019-01-11T20:52:01.923Z,1.60
2019-01-11T20:56:46.827Z,1.60
2019-01-11T21:01:31.389Z,1.60
2019-01-11T21:06:16.459Z,1.50
2019-01-11T21:11:01.206Z,1.60
2019-01-11T21:15:46.081Z,1.60
2019-01-11T21:20:30.794Z,1.60
2019-01-11T21:25:16.387Z,1.60
2019-01-11T21:30:29.191Z,1.60
2019-01-11T21:35:23.271Z,1.70
2019-01-11T21:40:10.043Z,1.70
2019-01-11T21:45:05.977Z,1.70
2019-01-11T21:49:53.146Z,1.70
2019-01-11T21:54:46.657Z,1.80
2019-01-11T22:00:00.586Z,1.70
2019-01-11T22:04:51.831Z,1.80
2019-01-11T22:27:20.523Z,1.80
2019-01-11T22:43:28.078Z,1.80
2019-01-11T22:48:34.667Z,1.80
2019-01-11T22:53:27.261Z,1.80
2019-01-11T22:58:45.283Z,1.80
2019-01-11T23:04:00.433Z,1.80
2019-01-11T23:09:30.541Z,1.80
2019-01-11T23:19:51.303Z,1.80
2019-01-11T23:24:38.919Z,1.90
2019-01-11T23:29:25.865Z,1.90
2019-01-11T23:34:10.479Z,1.90
2019-01-11T23:39:20.434Z,1.90
2019-01-11T23:44:05.503Z,2.00
2019-01-11T23:49:38.465Z,1.90
2019-01-11T23:53:55.475Z,2.00
2019-01-11T23:58:43.597Z,2.00
